Time;durP1;ratioP1;P1;durP2;ratioP2;P2;SDS_P1;SDS_P2;PMS_P1;PMS_P2;Temp;Humidity;BMP_temperature;BMP_pressure;BME280_temperature;BME280_humidity;BME280_pressure;Samples;Min_cycle;Max_cycle;Signal;HPM_P1;HPM_P2
2022/06/25 00:02:21;;;;;;;6.00;5.50;;;;;;;21.10;81.20;99290.53;6305370;22;20027;-84
2022/06/25 00:07:30;;;;;;;8.35;5.72;;;;;;;21.21;80.74;99300.97;6305904;22;20502;-83
2022/06/25 00:09:56;;;;;;;8.43;5.80;;;;;;;21.05;82.35;99310.31;6306450;22;20007;-83
2022/06/25 00:12:34;;;;;;;6.93;5.90;;;;;;;21.06;82.44;99312.63;6305445;22;20437;-83
2022/06/25 00:15:01;;;;;;;6.40;5.80;;;;;;;21.05;82.29;99311.09;6305566;22;20018;-83
2022/06/25 00:17:27;;;;;;;6.88;5.78;;;;;;;21.05;81.76;99311.09;6305828;22;20388;-83
2022/06/25 00:19:52;;;;;;;8.27;5.97;;;;;;;21.15;82.07;99315.09;6278292;22;20495;-83
2022/06/25 00:22:18;;;;;;;6.63;6.00;;;;;;;21.14;81.55;99316.41;6305824;22;20015;-83
2022/06/25 00:24:43;;;;;;;7.50;6.13;;;;;;;21.17;81.46;99320.22;6306210;22;20000;-83
2022/06/25 00:27:09;;;;;;;8.57;6.40;;;;;;;21.25;81.30;99327.59;6305751;22;20011;-83
2022/06/25 00:29:34;;;;;;;6.82;6.13;;;;;;;21.06;82.62;99323.91;6278410;22;20338;-83
2022/06/25 00:32:00;;;;;;;8.90;6.15;;;;;;;21.13;81.99;99317.72;6252640;22;20463;-83
2022/06/25 00:34:27;;;;;;;8.98;6.15;;;;;;;21.09;81.98;99316.44;6305784;22;20015;-83
2022/06/25 00:36:53;;;;;;;7.07;5.90;;;;;;;21.05;82.23;99316.72;6305524;22;20091;-83
2022/06/25 00:39:20;;;;;;;7.60;6.15;;;;;;;21.10;82.83;99313.09;6305942;22;20014;-83
2022/06/25 00:41:45;;;;;;;7.00;6.32;;;;;;;21.27;81.73;99330.63;6306144;22;20012;-83
2022/06/25 00:44:11;;;;;;;8.02;6.10;;;;;;;21.17;82.13;99321.00;6305778;22;20007;-83
2022/06/25 00:46:37;;;;;;;7.32;6.00;;;;;;;21.19;82.66;99326.13;6277888;22;20426;-83
2022/06/25 00:49:03;;;;;;;8.48;6.18;;;;;;;21.36;81.02;99327.47;6278599;22;20480;-83
2022/06/25 00:51:31;;;;;;;10.85;6.10;;;;;;;21.29;81.85;99325.25;6306255;22;20011;-83
2022/06/25 00:53:59;;;;;;;9.02;6.32;;;;;;;21.09;83.16;99327.72;6305275;22;20095;-83
2022/06/25 00:56:27;;;;;;;8.38;5.93;;;;;;;21.22;82.38;99330.69;6278194;22;20012;-83
2022/06/25 00:58:55;;;;;;;8.68;5.78;;;;;;;21.16;83.29;99322.28;6252596;22;20082;-83
2022/06/25 01:04:02;;;;;;;8.10;6.50;;;;;;;21.31;82.83;99311.34;6268171;22;20023;-84
2022/06/25 01:06:28;;;;;;;9.18;6.65;;;;;;;21.15;84.06;99317.94;6247287;22;20016;-84
2022/06/25 01:08:55;;;;;;;9.13;6.50;;;;;;;21.33;83.25;99322.91;6273800;22;20324;-84
2022/06/25 01:11:21;;;;;;;8.20;6.18;;;;;;;21.34;83.31;99320.84;6274019;22;20181;-83
2022/06/25 01:13:47;;;;;;;8.43;6.72;;;;;;;21.19;83.61;99321.22;6246855;22;20061;-84
2022/06/25 01:16:12;;;;;;;7.95;6.25;;;;;;;21.23;83.81;99320.97;6247126;22;20034;-84
2022/06/25 01:18:38;;;;;;;8.13;6.43;;;;;;;21.33;84.08;99308.78;6246849;22;20459;-86
2022/06/25 01:21:04;;;;;;;10.07;7.15;;;;;;;21.19;84.44;99318.41;6247148;22;20053;-83
2022/06/25 01:23:30;;;;;;;8.32;6.65;;;;;;;21.03;85.03;99324.94;6246546;22;20514;-83
2022/06/25 01:25:57;;;;;;;7.78;6.90;;;;;;;20.86;85.44;99324.31;6246608;22;20015;-83
2022/06/25 01:28:22;;;;;;;8.38;7.15;;;;;;;20.99;84.82;99332.91;6246855;22;20034;-83
2022/06/25 01:30:48;;;;;;;8.02;6.28;;;;;;;21.05;83.82;99338.50;6247224;22;20007;-86
2022/06/25 01:33:13;;;;;;;8.02;7.00;;;;;;;20.81;85.64;99319.50;6273206;22;20356;-85
2022/06/25 01:35:41;;;;;;;9.80;6.95;;;;;;;20.80;86.67;99324.38;6275137;22;20078;-86
2022/06/25 01:38:06;;;;;;;7.55;6.78;;;;;;;21.02;85.78;99319.84;6222196;22;20544;-85
2022/06/25 01:40:33;;;;;;;10.75;6.90;;;;;;;20.93;86.06;99304.03;6275085;22;20092;-85
2022/06/25 01:42:59;;;;;;;8.15;6.82;;;;;;;20.73;87.66;99310.06;6247325;22;20079;-86
2022/06/25 01:45:36;;;;;;;10.48;6.85;;;;;;;20.87;88.77;99317.38;6222624;22;20586;-85
2022/06/25 01:48:03;;;;;;;9.32;6.95;;;;;;;20.74;89.35;99314.44;6247293;22;20007;-85
2022/06/25 01:50:30;;;;;;;8.82;7.15;;;;;;;20.69;90.10;99309.59;6274929;22;20080;-85
2022/06/25 01:52:56;;;;;;;10.18;6.95;;;;;;;20.94;89.38;99316.84;6246837;22;20034;-85
2022/06/25 01:55:21;;;;;;;9.30;7.25;;;;;;;21.08;88.30;99310.03;6274636;22;20329;-85
2022/06/25 01:57:48;;;;;;;9.07;7.38;;;;;;;21.13;89.23;99317.72;6247231;22;20019;-85
2022/06/25 02:00:16;;;;;;;8.65;7.25;;;;;;;21.02;88.48;99320.59;6222102;22;20007;-85
2022/06/25 02:02:49;;;;;;;8.15;7.30;;;;;;;20.79;89.26;99317.19;6217827;23;20047;-85
2022/06/25 02:05:17;;;;;;;9.70;7.15;;;;;;;20.93;89.13;99329.38;6167323;23;20456;-85
2022/06/25 02:07:44;;;;;;;8.25;7.43;;;;;;;20.77;89.34;99335.94;6217078;23;20086;-84
2022/06/25 02:10:11;;;;;;;9.73;7.47;;;;;;;20.70;90.32;99336.50;6243726;23;20027;-85
2022/06/25 02:12:37;;;;;;;7.75;7.05;;;;;;;20.73;89.48;99338.25;6241780;23;20008;-85
2022/06/25 02:15:04;;;;;;;11.60;7.90;;;;;;;20.73;89.68;99341.84;6242006;23;20070;-85
2022/06/25 02:17:29;;;;;;;8.35;7.38;;;;;;;20.79;88.39;99338.97;6242142;23;20073;-85
2022/06/25 02:19:57;;;;;;;10.30;7.47;;;;;;;20.82;88.64;99343.59;6216650;23;20066;-87
2022/06/25 02:22:23;;;;;;;10.20;7.25;;;;;;;20.86;87.68;99349.69;6216706;23;20012;-86
2022/06/25 02:24:48;;;;;;;11.52;7.68;;;;;;;20.84;88.00;99346.63;6243711;23;20039;-86
2022/06/25 02:27:14;;;;;;;8.40;7.20;;;;;;;20.88;87.60;99356.34;6216419;23;20012;-87
2022/06/25 02:29:39;;;;;;;7.82;7.03;;;;;;;20.93;87.06;99364.00;6243911;23;20389;-87
2022/06/25 02:32:05;;;;;;;8.20;7.40;;;;;;;20.80;88.50;99360.22;6243199;23;20004;-86
2022/06/25 02:34:31;;;;;;;8.38;7.57;;;;;;;20.58;89.76;99371.69;6243575;23;20016;-86
2022/06/25 02:36:56;;;;;;;9.05;8.13;;;;;;;20.49;91.21;99378.38;6241949;23;20004;-87
2022/06/25 02:39:25;;;;;;;9.27;8.40;;;;;;;20.52;90.84;99379.38;6216622;23;20438;-86
2022/06/25 02:41:51;;;;;;;8.57;7.57;;;;;;;20.51;90.62;99383.47;6191540;23;20066;-86
2022/06/25 02:44:19;;;;;;;9.82;7.47;;;;;;;20.50;90.49;99381.97;6216560;23;20012;-86
2022/06/25 02:46:49;;;;;;;11.05;7.60;;;;;;;20.43;91.54;99378.41;6242007;23;20062;-86
2022/06/25 02:49:15;;;;;;;9.23;7.43;;;;;;;20.63;91.10;99393.41;6215772;23;20442;-86
2022/06/25 02:51:40;;;;;;;8.25;7.13;;;;;;;20.67;90.92;99405.16;6243817;23;20338;-86
2022/06/25 02:54:06;;;;;;;9.45;7.80;;;;;;;20.67;90.62;99407.97;6241331;23;20043;-85
2022/06/25 02:59:17;;;;;;;11.88;8.50;;;;;;;20.10;96.15;99420.75;6195161;23;20016;-85
2022/06/25 03:01:44;;;;;;;10.93;8.38;;;;;;;20.06;97.79;99442.78;6241958;23;20209;-85
2022/06/25 03:04:11;;;;;;;11.00;8.70;;;;;;;19.97;99.56;99449.50;6240789;23;20013;-86
2022/06/25 03:06:37;;;;;;;11.40;8.43;;;;;;;20.00;99.92;99445.63;6216725;23;20012;-86
2022/06/25 03:09:03;;;;;;;10.40;8.75;;;;;;;20.02;99.67;99442.28;6241339;23;20012;-87
2022/06/25 03:11:28;;;;;;;12.13;9.45;;;;;;;19.99;100.00;99448.97;6216800;23;20019;-86
2022/06/25 03:13:54;;;;;;;11.90;8.35;;;;;;;19.98;100.00;99445.38;6216531;23;20009;-87
2022/06/25 03:16:21;;;;;;;15.55;8.88;;;;;;;20.04;99.22;99456.63;6216526;23;20023;-86
2022/06/25 03:18:49;;;;;;;11.15;7.80;;;;;;;20.00;98.41;99447.69;6216335;23;20004;-86
2022/06/25 03:21:33;;;;;;;7.95;7.00;;;;;;;20.07;97.29;99449.19;6243389;23;20081;-86
2022/06/25 03:24:03;;;;;;;10.13;6.72;;;;;;;20.13;94.77;99459.16;6215768;23;20350;-86
2022/06/25 03:26:30;;;;;;;6.63;5.63;;;;;;;20.15;94.42;99458.63;6241932;23;20020;-86
2022/06/25 03:28:56;;;;;;;6.97;5.72;;;;;;;20.19;93.19;99470.41;6216541;23;20020;-86
2022/06/25 03:31:23;;;;;;;6.60;5.05;;;;;;;20.17;92.20;99456.84;6191711;23;20016;-86
2022/06/25 03:33:49;;;;;;;11.75;5.53;;;;;;;20.21;92.49;99459.41;6216159;23;20008;-86
2022/06/25 03:36:23;;;;;;;10.02;5.07;;;;;;;20.22;91.47;99475.75;6219285;23;20112;-85
2022/06/25 03:38:52;;;;;;;9.48;4.35;;;;;;;20.30;89.96;99471.16;6216590;23;20425;-86
2022/06/25 03:41:35;;;;;;;7.30;4.43;;;;;;;20.33;90.29;99469.38;6216894;23;20008;-86
2022/06/25 03:44:21;;;;;;;8.50;4.65;;;;;;;20.34;90.43;99473.72;6243052;23;20024;-86
2022/06/25 03:46:48;;;;;;;6.43;4.32;;;;;;;20.36;89.83;99468.31;6192479;23;20012;-86
2022/06/25 03:49:14;;;;;;;7.35;3.97;;;;;;;20.34;90.68;99477.28;6241826;23;20429;-89
2022/06/25 03:52:09;;;;;;;10.02;4.38;;;;;;;20.27;92.11;99469.34;6223718;23;20043;-88
2022/06/25 03:54:35;;;;;;;8.27;4.40;;;;;;;20.21;91.80;99471.44;6217561;23;20146;-84
2022/06/25 03:57:03;;;;;;;6.43;4.53;;;;;;;20.24;91.88;99492.91;6244982;23;20772;-84
2022/06/25 03:59:42;;;;;;;6.38;4.20;;;;;;;20.24;91.80;99492.16;6243248;23;20003;-84
2022/06/25 04:02:19;;;;;;;5.85;3.70;;;;;;;20.25;92.15;99494.47;6195033;23;20012;-84
2022/06/25 04:05:10;;;;;;;7.72;4.20;;;;;;;20.23;91.93;99484.97;6209915;23;20461;-84
2022/06/25 04:07:36;;;;;;;7.88;4.00;;;;;;;20.25;91.69;99483.19;6218036;23;20096;-84
2022/06/25 04:10:05;;;;;;;6.80;3.75;;;;;;;20.32;90.84;99482.69;6245035;23;20004;-85
2022/06/25 04:12:30;;;;;;;7.05;3.80;;;;;;;20.34;90.70;99479.34;6243439;23;20035;-84
2022/06/25 04:14:56;;;;;;;7.30;3.72;;;;;;;20.28;90.54;99482.16;6218543;23;20008;-87
2022/06/25 04:17:22;;;;;;;6.18;3.40;;;;;;;20.28;89.31;99492.66;6243206;23;20106;-87
2022/06/25 04:19:47;;;;;;;4.72;3.22;;;;;;;20.31;88.94;99495.22;6193212;23;20042;-87
2022/06/25 04:22:16;;;;;;;6.00;3.10;;;;;;;20.31;87.64;99495.22;6218351;23;20012;-87
2022/06/25 04:24:42;;;;;;;5.85;2.80;;;;;;;20.31;87.77;99500.84;6218035;23;20035;-86
2022/06/25 04:29:03;;;;;;;5.80;3.20;;;;;;;20.36;87.74;99496.50;6217970;23;20018;-88
2022/06/25 04:29:53;;;;;;;3.72;2.50;;;;;;;20.30;86.72;99488.03;6218092;23;20323;-86
2022/06/25 04:32:21;;;;;;;2.88;2.40;;;;;;;20.32;86.22;99498.81;6243136;23;20019;-86
2022/06/25 04:35:06;;;;;;;7.03;3.13;;;;;;;20.33;86.09;99503.94;6244653;23;20078;-87
2022/06/25 04:37:35;;;;;;;6.95;2.35;;;;;;;20.40;84.67;99494.16;6243058;23;20008;-87
2022/06/25 04:40:01;;;;;;;3.97;2.10;;;;;;;20.40;84.40;99505.44;6217936;23;20107;-87
2022/06/25 04:42:28;;;;;;;3.10;1.50;;;;;;;20.35;80.18;99515.44;6217952;23;20015;-87
2022/06/25 04:44:54;;;;;;;4.22;1.95;;;;;;;20.38;81.46;99514.41;6192928;23;20012;-88
2022/06/25 04:47:20;;;;;;;2.28;1.60;;;;;;;20.44;80.11;99512.34;6218299;23;20345;-88
2022/06/25 04:49:57;;;;;;;3.38;1.92;;;;;;;20.50;78.79;99528.47;6218045;23;20015;-87
2022/06/25 04:52:24;;;;;;;7.65;4.35;;;;;;;20.50;77.22;99525.66;6217696;23;20062;-85
2022/06/25 04:54:50;;;;;;;1.17;1.08;;;;;;;20.56;74.89;99534.84;6217490;23;20012;-84
2022/06/25 04:57:18;;;;;;;3.10;1.10;;;;;;;20.55;75.32;99538.94;6243025;23;20008;-84
2022/06/25 05:00:03;;;;;;;1.65;0.80;;;;;;;20.51;74.80;99532.78;6244730;23;20077;-84
2022/06/25 05:02:38;;;;;;;0.90;0.60;;;;;;;20.60;75.00;99549.41;6194171;23;20062;-84
2022/06/25 05:05:11;;;;;;;1.20;0.60;;;;;;;20.61;73.18;99548.13;6217516;23;20020;-84
2022/06/25 05:07:40;;;;;;;3.53;0.50;;;;;;;20.54;73.38;99543.81;6217665;23;20331;-84
2022/06/25 05:10:06;;;;;;;0.95;0.70;;;;;;;20.51;72.98;99549.69;6244540;23;20004;-86
2022/06/25 05:15:15;;;;;;;1.48;0.60;;;;;;;20.79;73.98;99547.53;6217581;23;20020;-86
2022/06/25 05:17:41;;;;;;;1.30;0.50;;;;;;;20.81;72.27;99554.22;6217421;23;20422;-87
2022/06/25 05:20:11;;;;;;;3.25;0.55;;;;;;;20.74;71.24;99563.22;6193460;23;20095;-87
2022/06/25 05:22:36;;;;;;;0.57;0.40;;;;;;;20.79;71.01;99570.09;6242861;23;20086;-87
2022/06/25 05:25:04;;;;;;;0.98;0.32;;;;;;;20.81;70.34;99567.53;6244352;23;20007;-86
2022/06/25 05:27:29;;;;;;;2.72;1.23;;;;;;;20.83;70.04;99570.59;6244852;23;20016;-85
2022/06/25 05:29:56;;;;;;;1.38;0.60;;;;;;;20.94;70.46;99573.38;6217558;23;20031;-86
2022/06/25 05:32:22;;;;;;;0.88;0.30;;;;;;;21.13;70.32;99571.50;6242579;23;20421;-86
2022/06/25 05:34:48;;;;;;;1.85;0.40;;;;;;;21.26;69.39;99568.88;6217381;23;20030;-86
2022/06/25 05:37:15;;;;;;;1.30;0.20;;;;;;;21.28;67.58;99566.28;6217162;23;20027;-85
2022/06/25 05:39:40;;;;;;;1.52;0.40;;;;;;;21.44;67.67;99575.16;6243923;23;20024;-87
2022/06/25 05:42:06;;;;;;;0.73;0.40;;;;;;;21.48;69.29;99578.47;6192248;23;20016;-87
2022/06/25 05:44:32;;;;;;;1.10;0.40;;;;;;;21.75;66.96;99586.00;6244220;23;20315;-86
2022/06/25 05:46:57;;;;;;;1.00;0.40;;;;;;;21.90;66.90;99588.44;6217782;23;20000;-87
2022/06/25 05:49:23;;;;;;;2.65;0.50;;;;;;;21.86;66.78;99591.53;6244439;23;20008;-84
2022/06/25 05:51:48;;;;;;;1.90;0.40;;;;;;;21.94;65.49;99592.53;6244045;23;20012;-84
2022/06/25 05:54:14;;;;;;;1.55;0.50;;;;;;;21.80;64.61;99593.63;6243691;23;20011;-84
2022/06/25 05:56:39;;;;;;;2.63;0.32;;;;;;;21.71;65.45;99596.81;6244288;23;20008;-83
2022/06/25 05:59:05;;;;;;;3.13;0.40;;;;;;;21.95;64.50;99587.66;6243354;23;20430;-83
2022/06/25 06:01:31;;;;;;;0.57;0.40;;;;;;;21.89;64.32;99598.97;6244102;23;20066;-84
2022/06/25 06:03:56;;;;;;;1.30;0.30;;;;;;;21.91;64.54;99604.09;6217100;23;20338;-84
2022/06/25 06:06:22;;;;;;;0.88;0.50;;;;;;;22.33;64.61;99604.25;6217190;23;20012;-83
2022/06/25 06:08:47;;;;;;;3.55;0.40;;;;;;;22.82;63.60;99607.09;6243674;23;20089;-84
2022/06/25 06:11:13;;;;;;;1.50;0.20;;;;;;;22.92;61.70;99608.28;6243437;23;20066;-84
2022/06/25 06:13:38;;;;;;;1.55;0.30;;;;;;;23.08;60.43;99601.63;6243816;23;19996;-84
2022/06/25 06:16:04;;;;;;;0.30;0.22;;;;;;;22.67;61.23;99624.47;6243669;23;20008;-83
2022/06/25 06:18:30;;;;;;;1.30;0.40;;;;;;;22.43;61.63;99637.81;6243249;23;20012;-84
2022/06/25 06:20:56;;;;;;;1.52;0.30;;;;;;;22.37;62.77;99629.38;6217311;23;20343;-84
2022/06/25 06:23:21;;;;;;;3.15;0.60;;;;;;;21.95;63.12;99633.63;6243275;23;20103;-84
2022/06/25 06:25:47;;;;;;;1.75;0.30;;;;;;;22.11;63.26;99638.34;6243979;23;20083;-84
2022/06/25 06:28:12;;;;;;;0.10;0.10;;;;;;;22.27;63.27;99626.16;6216447;23;20095;-87
2022/06/25 06:30:38;;;;;;;1.02;0.30;;;;;;;22.24;63.52;99632.81;6217043;23;20048;-86
2022/06/25 06:33:04;;;;;;;0.43;0.20;;;;;;;22.05;63.61;99642.50;6243314;23;20346;-86
2022/06/25 06:35:29;;;;;;;1.80;0.32;;;;;;;21.96;64.56;99640.03;6243425;23;20000;-86
2022/06/25 06:37:55;;;;;;;1.85;0.25;;;;;;;21.97;64.90;99650.78;6243707;23;20016;-86
2022/06/25 06:40:20;;;;;;;0.82;0.35;;;;;;;22.17;64.23;99656.00;6241767;23;20014;-86
2022/06/25 06:42:46;;;;;;;1.52;0.40;;;;;;;22.52;61.82;99657.25;6243631;23;20008;-86
2022/06/25 06:45:11;;;;;;;1.13;0.20;;;;;;;23.16;61.01;99656.31;6243429;23;20020;-86
2022/06/25 06:47:37;;;;;;;1.08;0.20;;;;;;;23.66;58.71;99660.56;6243942;23;20446;-86
2022/06/25 06:50:03;;;;;;;3.55;0.40;;;;;;;23.95;58.26;99658.84;6216896;23;20000;-86
2022/06/25 06:52:28;;;;;;;1.58;0.20;;;;;;;23.69;57.01;99659.50;6241828;23;20035;-86
2022/06/25 06:54:54;;;;;;;0.20;0.17;;;;;;;23.68;56.66;99652.28;6243600;23;20000;-86
2022/06/25 06:57:19;;;;;;;0.73;0.13;;;;;;;23.68;56.78;99657.97;6243163;23;20016;-86
2022/06/25 06:59:45;;;;;;;0.45;0.20;;;;;;;23.48;57.57;99645.13;6243516;23;20079;-86
2022/06/25 07:02:10;;;;;;;2.17;0.40;;;;;;;23.70;57.43;99656.13;6243141;23;20012;-83
2022/06/25 07:04:36;;;;;;;0.20;0.10;;;;;;;24.12;56.63;99657.28;6216723;23;20040;-83
2022/06/25 07:07:02;;;;;;;1.58;0.35;;;;;;;24.15;55.95;99656.22;6243679;23;20012;-84
2022/06/25 07:09:27;;;;;;;1.65;0.20;;;;;;;23.99;57.19;99654.38;6243162;23;20027;-84
2022/06/25 07:11:53;;;;;;;1.25;0.50;;;;;;;24.12;55.44;99631.00;6243557;23;20012;-84
2022/06/25 07:14:18;;;;;;;1.48;0.38;;;;;;;24.16;56.41;99651.31;6243086;23;20011;-84
2022/06/25 07:16:44;;;;;;;1.27;0.20;;;;;;;24.76;54.02;99656.44;6243671;23;20119;-84
2022/06/25 07:19:10;;;;;;;2.38;0.28;;;;;;;24.42;54.15;99653.47;6243385;23;20012;-84
2022/06/25 07:21:36;;;;;;;1.48;0.20;;;;;;;25.03;54.44;99649.50;6243446;23;20004;-84
2022/06/25 07:24:01;;;;;;;0.52;0.30;;;;;;;25.16;52.48;99654.38;6216896;23;20338;-86
2022/06/25 07:26:27;;;;;;;1.75;0.30;;;;;;;25.29;53.06;99660.81;6243012;23;20000;-86
2022/06/25 07:28:53;;;;;;;0.43;0.20;;;;;;;25.16;51.75;99660.81;6218325;23;20019;-86
2022/06/25 07:31:19;;;;;;;1.20;0.30;;;;;;;25.01;52.26;99655.72;6245431;23;20496;-86
2022/06/25 07:33:44;;;;;;;0.25;0.10;;;;;;;24.86;52.13;99666.09;6245232;23;20000;-86
2022/06/25 07:36:10;;;;;;;0.22;0.13;;;;;;;24.97;51.12;99672.31;6245471;23;20012;-86
2022/06/25 07:38:36;;;;;;;1.00;0.30;;;;;;;24.69;52.59;99663.53;6243117;23;20098;-86
2022/06/25 07:41:02;;;;;;;1.58;0.30;;;;;;;24.89;52.44;99671.44;6245534;23;20020;-87
2022/06/25 07:43:27;;;;;;;0.63;0.20;;;;;;;25.08;52.51;99671.31;6218112;23;20062;-83
2022/06/25 07:45:54;;;;;;;1.67;0.20;;;;;;;25.47;52.47;99673.34;6245330;23;20051;-84
2022/06/25 07:48:20;;;;;;;1.33;0.30;;;;;;;25.46;51.55;99681.09;6244941;23;20024;-84
2022/06/25 07:53:30;;;;;;;0.82;0.30;;;;;;;24.96;51.83;99679.28;6221817;23;20023;-84
2022/06/25 07:55:55;;;;;;;0.57;0.38;;;;;;;24.89;51.69;99677.09;6245116;23;20000;-84
2022/06/25 07:58:23;;;;;;;0.80;0.20;;;;;;;25.68;51.34;99685.53;6244676;23;20020;-85
2022/06/25 08:00:49;;;;;;;1.35;0.20;;;;;;;25.57;49.76;99682.97;6245367;23;20089;-84
2022/06/25 08:03:15;;;;;;;0.38;0.20;;;;;;;25.24;52.20;99689.31;6212161;23;20401;-84
2022/06/25 08:05:40;;;;;;;1.25;0.40;;;;;;;25.84;51.25;99683.66;6214851;23;20043;-84
2022/06/25 08:08:06;;;;;;;0.45;0.10;;;;;;;26.24;48.33;99687.13;6213250;23;20131;-84
2022/06/25 08:10:32;;;;;;;1.15;0.40;;;;;;;26.07;50.35;99695.25;6187823;23;20409;-83
2022/06/25 08:12:57;;;;;;;0.77;0.20;;;;;;;25.98;49.80;99694.44;6213075;23;20008;-84
2022/06/25 08:15:23;;;;;;;1.30;0.30;;;;;;;25.83;49.71;99704.88;6214115;23;20347;-84
2022/06/25 08:17:48;;;;;;;0.45;0.30;;;;;;;26.12;50.90;99708.59;6212751;23;20343;-84
2022/06/25 08:20:14;;;;;;;1.02;0.28;;;;;;;26.31;49.03;99697.81;6214438;23;20009;-84
2022/06/25 08:22:40;;;;;;;1.45;0.20;;;;;;;26.56;48.86;99701.06;6214626;23;20000;-87
2022/06/25 08:25:07;;;;;;;0.25;0.22;;;;;;;26.66;46.89;99700.00;6214657;23;20457;-87
2022/06/25 08:27:33;;;;;;;5.88;0.40;;;;;;;26.04;48.78;99691.47;6213965;23;20426;-86
2022/06/25 08:29:59;;;;;;;0.47;0.30;;;;;;;25.60;49.56;99701.75;6214397;23;20013;-86
2022/06/25 08:32:25;;;;;;;3.50;0.35;;;;;;;25.87;50.32;99694.69;6214015;23;20465;-86
2022/06/25 08:34:50;;;;;;;0.90;0.20;;;;;;;26.35;48.05;99699.00;6214387;23;20009;-86
2022/06/25 08:37:18;;;;;;;1.48;0.35;;;;;;;26.40;48.60;99700.94;6212306;23;20431;-88
2022/06/25 08:39:43;;;;;;;0.40;0.28;;;;;;;26.88;48.79;99705.16;6213890;23;20032;-87
2022/06/25 08:42:09;;;;;;;1.13;0.52;;;;;;;26.83;47.15;99702.41;6214209;23;20066;-87
2022/06/25 08:44:35;;;;;;;1.67;0.30;;;;;;;27.15;48.09;99691.47;6213866;23;20009;-87
2022/06/25 08:47:00;;;;;;;1.67;0.28;;;;;;;27.33;47.88;99698.22;6237902;23;20009;-88
2022/06/25 08:49:26;;;;;;;1.20;0.25;;;;;;;27.14;46.94;99697.69;6213704;23;20009;-88
2022/06/25 08:51:57;;;;;;;0.45;0.40;;;;;;;27.31;47.55;99700.84;6214388;23;20080;-87
2022/06/25 08:54:23;;;;;;;0.75;0.40;;;;;;;27.82;47.10;99704.50;6212497;23;20035;-88
2022/06/25 08:56:49;;;;;;;1.30;0.40;;;;;;;27.87;45.66;99705.66;6214359;23;20016;-84
2022/06/25 08:59:16;;;;;;;1.48;0.50;;;;;;;28.27;44.85;99697.41;6214016;23;20092;-84
2022/06/25 09:01:41;;;;;;;0.95;0.45;;;;;;;28.17;43.79;99702.94;6237518;23;20020;-84
2022/06/25 09:04:07;;;;;;;1.25;0.40;;;;;;;28.00;44.31;99699.81;6241508;23;20016;-84
2022/06/25 09:06:32;;;;;;;2.00;0.30;;;;;;;27.90;45.21;99706.63;6244238;23;20012;-84
2022/06/25 09:09:11;;;;;;;0.20;0.20;;;;;;;28.03;45.33;99706.47;6244950;23;20422;-84
2022/06/25 09:11:50;;;;;;;0.65;0.30;;;;;;;28.67;45.11;99701.22;6245190;23;20450;-84
2022/06/25 09:14:28;;;;;;;0.40;0.40;;;;;;;28.64;43.18;99725.22;6244441;23;20008;-84
2022/06/25 09:17:04;;;;;;;0.95;0.40;;;;;;;28.11;43.55;99718.66;6244696;23;20012;-84
2022/06/25 09:19:44;;;;;;;0.93;0.40;;;;;;;27.96;44.07;99715.75;6243799;23;20450;-84
2022/06/25 09:22:19;;;;;;;2.45;0.30;;;;;;;27.74;43.38;99725.78;6217807;23;20012;-84
2022/06/25 09:24:55;;;;;;;1.25;0.40;;;;;;;27.90;43.41;99733.06;6191781;23;20019;-84
2022/06/25 09:27:36;;;;;;;2.15;0.40;;;;;;;27.58;43.50;99712.78;6217311;23;20066;-84
2022/06/25 09:30:13;;;;;;;1.10;0.32;;;;;;;28.06;43.70;99719.59;6243814;23;20019;-84
2022/06/25 09:32:43;;;;;;;3.33;0.50;;;;;;;28.09;42.82;99721.34;6216754;23;20012;-84
2022/06/25 09:35:10;;;;;;;1.13;0.20;;;;;;;28.31;42.52;99706.34;6244139;23;20335;-84
2022/06/25 09:37:36;;;;;;;0.17;0.15;;;;;;;27.86;43.92;99709.84;6217148;23;20016;-84
2022/06/25 09:40:02;;;;;;;1.58;0.55;;;;;;;28.10;44.05;99700.06;6243739;23;20378;-85
2022/06/25 09:42:33;;;;;;;0.20;0.10;;;;;;;28.55;42.64;99702.94;6243958;23;20057;-85
2022/06/25 09:44:59;;;;;;;1.88;0.32;;;;;;;28.83;42.98;99702.03;6217002;23;20008;-84
2022/06/25 09:47:25;;;;;;;1.35;0.32;;;;;;;28.56;41.84;99707.31;6243654;23;20012;-84
2022/06/25 09:50:22;;;;;;;1.35;0.38;;;;;;;28.61;41.30;99697.81;6191935;23;20012;-84
2022/06/25 09:52:56;;;;;;;1.70;0.30;;;;;;;29.24;41.55;99700.78;6243184;23;20044;-85
2022/06/25 09:55:24;;;;;;;2.53;0.60;;;;;;;29.15;42.54;99692.84;6191608;23;20062;-84
2022/06/25 09:57:51;;;;;;;1.38;0.40;;;;;;;29.55;41.63;99702.25;6243804;23;20043;-84
2022/06/25 10:00:19;;;;;;;0.68;0.30;;;;;;;29.81;40.85;99700.97;6216790;23;20019;-84
2022/06/25 10:02:46;;;;;;;0.68;0.28;;;;;;;29.23;41.28;99709.94;6243354;23;20036;-84
2022/06/25 10:05:13;;;;;;;1.20;0.35;;;;;;;29.07;42.64;99709.22;6243526;23;20450;-84
2022/06/25 10:10:23;;;;;;;1.63;0.50;;;;;;;28.49;42.73;99707.31;6243399;23;20016;-84
2022/06/25 10:12:50;;;;;;;0.52;0.30;;;;;;;28.54;43.95;99706.38;6243700;23;20080;-84
2022/06/25 10:15:18;;;;;;;1.08;0.50;;;;;;;28.19;43.67;99696.63;6216800;23;20012;-84
2022/06/25 10:17:51;;;;;;;0.60;0.15;;;;;;;28.24;43.38;99707.09;6243336;23;20012;-84
2022/06/25 10:20:18;;;;;;;0.20;0.20;;;;;;;27.92;41.76;99706.81;6216926;23;20012;-84
2022/06/25 10:22:48;;;;;;;2.20;0.30;;;;;;;27.56;42.37;99698.34;6217045;23;20013;-84
2022/06/25 10:25:18;;;;;;;0.20;0.20;;;;;;;27.76;43.32;99700.31;6216562;23;20015;-85
2022/06/25 10:27:45;;;;;;;1.75;0.20;;;;;;;27.96;43.48;99710.06;6216883;23;20027;-85
2022/06/25 10:30:13;;;;;;;2.53;0.25;;;;;;;27.81;43.49;99696.53;6216687;23;20035;-84
2022/06/25 10:32:47;;;;;;;1.38;0.40;;;;;;;27.99;44.95;99694.66;6191582;23;20327;-84
2022/06/25 10:35:34;;;;;;;0.52;0.20;;;;;;;28.10;44.21;99688.66;6243395;23;20094;-84
2022/06/25 10:38:03;;;;;;;0.40;0.25;;;;;;;27.92;43.71;99689.72;6241781;23;20020;-84
2022/06/25 10:40:47;;;;;;;0.32;0.20;;;;;;;28.56;42.39;99684.50;6243287;23;20410;-84
2022/06/25 10:43:54;;;;;;;2.28;0.20;;;;;;;28.57;44.81;99686.03;6243727;23;20091;-84
2022/06/25 10:46:25;;;;;;;0.73;0.30;;;;;;;28.41;43.88;99678.78;6218862;23;20032;-84
2022/06/25 10:49:07;;;;;;;0.30;0.15;;;;;;;28.75;41.44;99686.25;6243410;23;20084;-84
2022/06/25 10:51:42;;;;;;;0.43;0.20;;;;;;;29.11;44.18;99687.53;6243539;23;20099;-84
2022/06/25 10:54:12;;;;;;;0.80;0.28;;;;;;;29.48;40.14;99680.16;6243412;23;20016;-85
2022/06/25 10:56:51;;;;;;;0.20;0.20;;;;;;;29.94;41.64;99677.13;6243829;23;20012;-84
2022/06/25 10:59:33;;;;;;;0.10;0.10;;;;;;;29.53;39.70;99676.34;6243013;23;20016;-84
2022/06/25 11:01:59;;;;;;;0.28;0.28;;;;;;;29.38;40.63;99676.41;6243541;23;20016;-84
2022/06/25 11:04:29;;;;;;;1.00;0.20;;;;;;;29.97;41.24;99684.53;6218642;23;20047;-84
2022/06/25 11:07:14;;;;;;;0.63;0.30;;;;;;;29.57;39.46;99678.81;6245521;23;20034;-84
2022/06/25 11:09:41;;;;;;;2.33;0.30;;;;;;;29.38;40.05;99682.13;6245204;23;20043;-84
2022/06/25 11:12:09;;;;;;;1.10;0.20;;;;;;;29.40;39.01;99673.00;6218668;23;20035;-84
2022/06/25 11:14:35;;;;;;;1.17;0.20;;;;;;;29.55;39.10;99676.53;6218177;23;20070;-87
2022/06/25 11:17:08;;;;;;;1.45;0.10;;;;;;;28.94;39.27;99678.78;6245503;23;20008;-87
2022/06/25 11:19:34;;;;;;;2.05;0.22;;;;;;;29.43;39.51;99678.31;6244926;23;20346;-87
2022/06/25 11:22:03;;;;;;;1.25;0.17;;;;;;;28.59;40.59;99682.63;6245420;23;20012;-87
2022/06/25 11:24:29;;;;;;;0.20;0.20;;;;;;;28.15;40.97;99670.59;6218065;23;20090;-88
2022/06/25 11:29:50;;;;;;;0.20;0.10;;;;;;;27.56;43.10;99676.31;6221932;23;20012;-87
2022/06/25 11:32:20;;;;;;;0.95;0.10;;;;;;;27.26;43.40;99676.91;6245132;23;20468;-84
2022/06/25 11:34:50;;;;;;;0.30;0.20;;;;;;;27.24;44.23;99673.09;6244761;23;20078;-84
2022/06/25 11:37:17;;;;;;;2.88;0.30;;;;;;;27.11;44.27;99671.13;6244935;23;20442;-84
2022/06/25 11:39:45;;;;;;;1.25;0.25;;;;;;;27.42;43.91;99671.28;6192950;23;20023;-84
2022/06/25 11:42:11;;;;;;;0.98;0.28;;;;;;;27.18;42.10;99658.25;6218385;23;20012;-84
2022/06/25 11:44:45;;;;;;;1.02;0.10;;;;;;;27.34;44.61;99665.53;6217779;23;20020;-84
2022/06/25 11:47:29;;;;;;;0.75;0.20;;;;;;;27.32;44.08;99666.13;6245146;23;20012;-84
2022/06/25 11:49:55;;;;;;;0.13;0.13;;;;;;;27.54;44.24;99649.72;6245013;23;20012;-84
2022/06/25 11:52:24;;;;;;;0.25;0.20;;;;;;;27.15;43.07;99653.69;6245231;23;20045;-84
2022/06/25 11:54:51;;;;;;;0.20;0.10;;;;;;;27.19;43.19;99656.94;6244312;23;20019;-85
2022/06/25 11:57:22;;;;;;;0.30;0.22;;;;;;;27.16;43.05;99663.75;6245034;23;20087;-84